Terminal Aerodrome Forecast
Issued by NWS

Current Version | Previous Version | Text Only | Print | Product List | Glossary On
Versions: 1 2 3 4 5 6 7 8 9 10 11 12 13 14 15 16 17 18 19
000 FTUS41 KGYX 260907 AAA TAFLEB TAF AMD KLEB 260907Z 2609/2706 00000KT P6SM FEW005 FM261000 VRB03KT 4SM -SHRA BR BKN004 FM261400 32008KT P6SM FEW250=

USA.gov is the U.S. government's official web portal to all federal, state and local government web resources and services.